sensor_id;sensor_type;location;lat;lon;timestamp;temperature;humidity
3756;DHT22;1893;52.526;13.360;2023-08-17T00:00:09;20.80;99.90
3756;DHT22;1893;52.526;13.360;2023-08-17T00:02:35;20.70;99.90
3756;DHT22;1893;52.526;13.360;2023-08-17T00:05:01;20.70;99.90
3756;DHT22;1893;52.526;13.360;2023-08-17T00:07:27;20.70;99.90
3756;DHT22;1893;52.526;13.360;2023-08-17T00:09:52;20.70;99.90
3756;DHT22;1893;52.526;13.360;2023-08-17T00:12:18;20.70;99.90
3756;DHT22;1893;52.526;13.360;2023-08-17T00:14:43;20.70;99.90
3756;DHT22;1893;52.526;13.360;2023-08-17T00:17:09;20.70;99.90
3756;DHT22;1893;52.526;13.360;2023-08-17T00:19:34;20.70;99.90
3756;DHT22;1893;52.526;13.360;2023-08-17T00:22:00;20.70;99.90
3756;DHT22;1893;52.526;13.360;2023-08-17T00:24:26;20.70;99.90
3756;DHT22;1893;52.526;13.360;2023-08-17T00:26:51;20.60;99.90
3756;DHT22;1893;52.526;13.360;2023-08-17T00:29:17;20.60;99.90
3756;DHT22;1893;52.526;13.360;2023-08-17T00:31:42;20.60;99.90
3756;DHT22;1893;52.526;13.360;2023-08-17T00:34:08;20.60;99.90
3756;DHT22;1893;52.526;13.360;2023-08-17T00:36:33;20.50;99.90
3756;DHT22;1893;52.526;13.360;2023-08-17T00:39:00;20.50;99.90
3756;DHT22;1893;52.526;13.360;2023-08-17T00:41:26;20.50;99.90
3756;DHT22;1893;52.526;13.360;2023-08-17T00:43:54;20.50;99.90
3756;DHT22;1893;52.526;13.360;2023-08-17T00:46:20;20.40;99.90
3756;DHT22;1893;52.526;13.360;2023-08-17T00:48:48;20.40;99.90
3756;DHT22;1893;52.526;13.360;2023-08-17T00:51:14;20.40;99.90
3756;DHT22;1893;52.526;13.360;2023-08-17T00:53:40;20.40;99.90
3756;DHT22;1893;52.526;13.360;2023-08-17T00:56:06;20.30;99.90
3756;DHT22;1893;52.526;13.360;2023-08-17T00:58:32;20.30;99.90
3756;DHT22;1893;52.526;13.360;2023-08-17T01:00:58;20.20;99.90
3756;DHT22;1893;52.526;13.360;2023-08-17T01:03:24;20.20;99.90
3756;DHT22;1893;52.526;13.360;2023-08-17T01:05:51;20.20;99.90
3756;DHT22;1893;52.526;13.360;2023-08-17T01:08:17;20.10;99.90
3756;DHT22;1893;52.526;13.360;2023-08-17T01:10:47;20.10;99.90
3756;DHT22;1893;52.526;13.360;2023-08-17T01:13:24;20.00;99.90
3756;DHT22;1893;52.526;13.360;2023-08-17T01:15:53;20.00;99.90
3756;DHT22;1893;52.526;13.360;2023-08-17T01:18:31;19.90;99.90
3756;DHT22;1893;52.526;13.360;2023-08-17T01:20:59;19.90;99.90
3756;DHT22;1893;52.526;13.360;2023-08-17T01:23:25;20.00;99.90
3756;DHT22;1893;52.526;13.360;2023-08-17T01:25:51;20.00;99.90
3756;DHT22;1893;52.526;13.360;2023-08-17T01:28:16;20.00;99.90
3756;DHT22;1893;52.526;13.360;2023-08-17T01:31:08;20.00;99.90
3756;DHT22;1893;52.526;13.360;2023-08-17T01:33:43;19.90;99.90
3756;DHT22;1893;52.526;13.360;2023-08-17T01:36:22;19.90;99.90
3756;DHT22;1893;52.526;13.360;2023-08-17T01:38:52;19.80;99.90
3756;DHT22;1893;52.526;13.360;2023-08-17T01:41:21;19.80;99.90
3756;DHT22;1893;52.526;13.360;2023-08-17T01:43:48;19.70;99.90
3756;DHT22;1893;52.526;13.360;2023-08-17T01:46:17;19.80;99.90
3756;DHT22;1893;52.526;13.360;2023-08-17T01:48:44;19.80;99.90
3756;DHT22;1893;52.526;13.360;2023-08-17T01:51:18;19.80;99.90
3756;DHT22;1893;52.526;13.360;2023-08-17T01:53:47;19.80;99.90
3756;DHT22;1893;52.526;13.360;2023-08-17T01:56:13;19.70;99.90
3756;DHT22;1893;52.526;13.360;2023-08-17T01:58:38;19.70;99.90
3756;DHT22;1893;52.526;13.360;2023-08-17T02:01:04;19.70;99.90
3756;DHT22;1893;52.526;13.360;2023-08-17T02:03:29;19.70;99.90
3756;DHT22;1893;52.526;13.360;2023-08-17T02:05:59;19.70;99.90
3756;DHT22;1893;52.526;13.360;2023-08-17T02:08:24;19.70;99.90
3756;DHT22;1893;52.526;13.360;2023-08-17T02:10:50;19.70;99.90
3756;DHT22;1893;52.526;13.360;2023-08-17T02:13:16;19.70;99.90
3756;DHT22;1893;52.526;13.360;2023-08-17T02:15:42;19.60;99.90
3756;DHT22;1893;52.526;13.360;2023-08-17T02:18:08;19.60;99.90
3756;DHT22;1893;52.526;13.360;2023-08-17T02:20:33;19.60;99.90
3756;DHT22;1893;52.526;13.360;2023-08-17T02:22:59;19.60;99.90
3756;DHT22;1893;52.526;13.360;2023-08-17T02:25:25;19.60;99.90
3756;DHT22;1893;52.526;13.360;2023-08-17T02:27:50;19.50;99.90
3756;DHT22;1893;52.526;13.360;2023-08-17T02:30:16;19.50;99.90
3756;DHT22;1893;52.526;13.360;2023-08-17T02:32:41;19.50;99.90
3756;DHT22;1893;52.526;13.360;2023-08-17T02:35:08;19.50;99.90
3756;DHT22;1893;52.526;13.360;2023-08-17T02:37:33;19.50;99.90
3756;DHT22;1893;52.526;13.360;2023-08-17T02:39:59;19.50;99.90
3756;DHT22;1893;52.526;13.360;2023-08-17T02:42:25;19.50;99.90
3756;DHT22;1893;52.526;13.360;2023-08-17T02:44:51;19.50;99.90
3756;DHT22;1893;52.526;13.360;2023-08-17T02:47:16;19.40;99.90
3756;DHT22;1893;52.526;13.360;2023-08-17T02:49:42;19.40;99.90
3756;DHT22;1893;52.526;13.360;2023-08-17T02:52:07;19.40;99.90
3756;DHT22;1893;52.526;13.360;2023-08-17T02:54:33;19.40;99.90
3756;DHT22;1893;52.526;13.360;2023-08-17T02:56:59;19.40;99.90
3756;DHT22;1893;52.526;13.360;2023-08-17T02:59:25;19.40;99.90
3756;DHT22;1893;52.526;13.360;2023-08-17T03:01:50;19.40;99.90
3756;DHT22;1893;52.526;13.360;2023-08-17T03:04:16;19.40;99.90
3756;DHT22;1893;52.526;13.360;2023-08-17T03:06:41;19.40;99.90
3756;DHT22;1893;52.526;13.360;2023-08-17T03:09:07;19.40;99.90
3756;DHT22;1893;52.526;13.360;2023-08-17T03:11:33;19.40;99.90
3756;DHT22;1893;52.526;13.360;2023-08-17T03:13:58;19.40;99.90
3756;DHT22;1893;52.526;13.360;2023-08-17T03:16:27;19.40;99.90
3756;DHT22;1893;52.526;13.360;2023-08-17T03:18:53;19.40;99.90
3756;DHT22;1893;52.526;13.360;2023-08-17T03:21:18;19.30;99.90
3756;DHT22;1893;52.526;13.360;2023-08-17T03:23:45;19.30;99.90
3756;DHT22;1893;52.526;13.360;2023-08-17T03:26:10;19.30;99.90
3756;DHT22;1893;52.526;13.360;2023-08-17T03:28:36;19.40;99.90
3756;DHT22;1893;52.526;13.360;2023-08-17T03:31:02;19.40;99.90
3756;DHT22;1893;52.526;13.360;2023-08-17T03:33:28;19.40;99.90
3756;DHT22;1893;52.526;13.360;2023-08-17T03:35:54;19.40;99.90
3756;DHT22;1893;52.526;13.360;2023-08-17T03:38:20;19.40;99.90
3756;DHT22;1893;52.526;13.360;2023-08-17T03:40:46;19.40;99.90
3756;DHT22;1893;52.526;13.360;2023-08-17T03:43:13;19.40;99.90
3756;DHT22;1893;52.526;13.360;2023-08-17T03:45:40;19.30;99.90
3756;DHT22;1893;52.526;13.360;2023-08-17T03:48:06;19.30;99.90
3756;DHT22;1893;52.526;13.360;2023-08-17T03:50:32;19.20;99.90
3756;DHT22;1893;52.526;13.360;2023-08-17T03:52:58;19.20;99.90
3756;DHT22;1893;52.526;13.360;2023-08-17T03:55:23;19.10;99.90
3756;DHT22;1893;52.526;13.360;2023-08-17T03:57:49;19.10;99.90
3756;DHT22;1893;52.526;13.360;2023-08-17T04:00:14;19.10;99.90
3756;DHT22;1893;52.526;13.360;2023-08-17T04:02:40;19.10;99.90
3756;DHT22;1893;52.526;13.360;2023-08-17T04:05:06;19.10;99.90
3756;DHT22;1893;52.526;13.360;2023-08-17T04:07:31;19.10;99.90
3756;DHT22;1893;52.526;13.360;2023-08-17T04:09:57;19.10;99.90
3756;DHT22;1893;52.526;13.360;2023-08-17T04:12:23;19.10;99.90
3756;DHT22;1893;52.526;13.360;2023-08-17T04:14:48;19.10;99.90
3756;DHT22;1893;52.526;13.360;2023-08-17T04:17:14;19.00;99.90
3756;DHT22;1893;52.526;13.360;2023-08-17T04:19:40;19.10;99.90
3756;DHT22;1893;52.526;13.360;2023-08-17T04:22:06;19.10;99.90
3756;DHT22;1893;52.526;13.360;2023-08-17T04:24:31;19.10;99.90
3756;DHT22;1893;52.526;13.360;2023-08-17T04:26:57;19.10;99.90
3756;DHT22;1893;52.526;13.360;2023-08-17T04:29:22;19.10;99.90
3756;DHT22;1893;52.526;13.360;2023-08-17T04:31:48;19.10;99.90
3756;DHT22;1893;52.526;13.360;2023-08-17T04:34:14;19.10;99.90
3756;DHT22;1893;52.526;13.360;2023-08-17T04:36:39;19.10;99.90
3756;DHT22;1893;52.526;13.360;2023-08-17T04:39:05;19.10;99.90
3756;DHT22;1893;52.526;13.360;2023-08-17T04:41:31;19.10;99.90
3756;DHT22;1893;52.526;13.360;2023-08-17T04:43:56;19.10;99.90
3756;DHT22;1893;52.526;13.360;2023-08-17T04:46:22;19.10;99.90
3756;DHT22;1893;52.526;13.360;2023-08-17T04:48:47;19.20;99.90
3756;DHT22;1893;52.526;13.360;2023-08-17T04:51:15;19.20;99.90
3756;DHT22;1893;52.526;13.360;2023-08-17T04:53:40;19.30;99.90
3756;DHT22;1893;52.526;13.360;2023-08-17T04:56:06;19.30;99.90
3756;DHT22;1893;52.526;13.360;2023-08-17T04:58:32;19.40;99.90
3756;DHT22;1893;52.526;13.360;2023-08-17T05:00:58;19.40;99.90
3756;DHT22;1893;52.526;13.360;2023-08-17T05:03:24;19.40;99.90
3756;DHT22;1893;52.526;13.360;2023-08-17T05:05:57;19.50;99.90
3756;DHT22;1893;52.526;13.360;2023-08-17T05:08:23;19.50;99.90
3756;DHT22;1893;52.526;13.360;2023-08-17T05:10:49;19.50;99.90
3756;DHT22;1893;52.526;13.360;2023-08-17T05:13:14;19.50;99.90
3756;DHT22;1893;52.526;13.360;2023-08-17T05:15:40;19.60;99.90
3756;DHT22;1893;52.526;13.360;2023-08-17T05:18:06;19.60;99.90
3756;DHT22;1893;52.526;13.360;2023-08-17T05:20:31;19.60;99.90
3756;DHT22;1893;52.526;13.360;2023-08-17T05:22:57;19.60;99.90
3756;DHT22;1893;52.526;13.360;2023-08-17T05:25:22;19.60;99.90
3756;DHT22;1893;52.526;13.360;2023-08-17T05:27:48;19.50;99.90
3756;DHT22;1893;52.526;13.360;2023-08-17T05:30:17;19.70;99.90
3756;DHT22;1893;52.526;13.360;2023-08-17T05:32:43;19.80;99.90
3756;DHT22;1893;52.526;13.360;2023-08-17T05:35:08;19.80;99.90
3756;DHT22;1893;52.526;13.360;2023-08-17T05:37:34;19.80;99.90
3756;DHT22;1893;52.526;13.360;2023-08-17T05:40:00;19.80;99.90
3756;DHT22;1893;52.526;13.360;2023-08-17T05:42:25;19.80;99.90
3756;DHT22;1893;52.526;13.360;2023-08-17T05:44:51;19.90;99.90
3756;DHT22;1893;52.526;13.360;2023-08-17T05:47:16;19.80;99.90
3756;DHT22;1893;52.526;13.360;2023-08-17T05:49:44;19.80;99.90
3756;DHT22;1893;52.526;13.360;2023-08-17T05:52:10;19.90;99.90
3756;DHT22;1893;52.526;13.360;2023-08-17T05:54:35;20.00;99.90
3756;DHT22;1893;52.526;13.360;2023-08-17T05:57:02;20.00;99.90
3756;DHT22;1893;52.526;13.360;2023-08-17T05:59:27;20.00;99.90
3756;DHT22;1893;52.526;13.360;2023-08-17T06:01:53;20.00;99.90
3756;DHT22;1893;52.526;13.360;2023-08-17T06:04:22;20.10;99.90
3756;DHT22;1893;52.526;13.360;2023-08-17T06:06:48;20.10;99.90
3756;DHT22;1893;52.526;13.360;2023-08-17T06:09:13;20.00;99.90
3756;DHT22;1893;52.526;13.360;2023-08-17T06:11:40;20.10;99.90
3756;DHT22;1893;52.526;13.360;2023-08-17T06:14:05;20.10;99.90
3756;DHT22;1893;52.526;13.360;2023-08-17T06:16:31;20.10;99.90
3756;DHT22;1893;52.526;13.360;2023-08-17T06:18:57;20.00;99.90
3756;DHT22;1893;52.526;13.360;2023-08-17T06:21:22;20.00;99.90
3756;DHT22;1893;52.526;13.360;2023-08-17T06:23:48;20.10;99.90
3756;DHT22;1893;52.526;13.360;2023-08-17T06:26:14;20.10;99.90
3756;DHT22;1893;52.526;13.360;2023-08-17T06:28:39;20.10;99.90
3756;DHT22;1893;52.526;13.360;2023-08-17T06:31:05;20.10;99.90
3756;DHT22;1893;52.526;13.360;2023-08-17T06:33:32;20.20;99.90
3756;DHT22;1893;52.526;13.360;2023-08-17T06:35:57;20.10;99.90
3756;DHT22;1893;52.526;13.360;2023-08-17T06:38:23;20.20;99.90
3756;DHT22;1893;52.526;13.360;2023-08-17T06:40:49;20.20;99.90
3756;DHT22;1893;52.526;13.360;2023-08-17T06:43:14;20.20;99.90
3756;DHT22;1893;52.526;13.360;2023-08-17T06:45:40;20.20;99.90
3756;DHT22;1893;52.526;13.360;2023-08-17T06:48:06;20.20;99.90
3756;DHT22;1893;52.526;13.360;2023-08-17T06:50:31;20.20;99.90
3756;DHT22;1893;52.526;13.360;2023-08-17T06:52:57;20.20;99.90
3756;DHT22;1893;52.526;13.360;2023-08-17T06:55:23;20.20;99.90
3756;DHT22;1893;52.526;13.360;2023-08-17T06:57:48;20.30;99.90
3756;DHT22;1893;52.526;13.360;2023-08-17T07:00:17;20.30;99.90
3756;DHT22;1893;52.526;13.360;2023-08-17T07:02:46;20.40;99.90
3756;DHT22;1893;52.526;13.360;2023-08-17T07:05:14;20.40;99.90
3756;DHT22;1893;52.526;13.360;2023-08-17T07:07:39;20.40;99.90
3756;DHT22;1893;52.526;13.360;2023-08-17T07:10:05;20.50;99.90
3756;DHT22;1893;52.526;13.360;2023-08-17T07:12:32;20.60;99.90
3756;DHT22;1893;52.526;13.360;2023-08-17T07:14:58;20.70;99.90
3756;DHT22;1893;52.526;13.360;2023-08-17T07:17:23;20.70;99.90
3756;DHT22;1893;52.526;13.360;2023-08-17T07:19:49;20.70;99.90
3756;DHT22;1893;52.526;13.360;2023-08-17T07:22:15;20.80;99.90
3756;DHT22;1893;52.526;13.360;2023-08-17T07:24:42;20.90;99.90
3756;DHT22;1893;52.526;13.360;2023-08-17T07:27:07;20.90;99.90
3756;DHT22;1893;52.526;13.360;2023-08-17T07:29:33;20.90;99.90
3756;DHT22;1893;52.526;13.360;2023-08-17T07:31:59;20.90;99.90
3756;DHT22;1893;52.526;13.360;2023-08-17T07:34:28;21.10;99.90
3756;DHT22;1893;52.526;13.360;2023-08-17T07:36:53;21.00;99.90
3756;DHT22;1893;52.526;13.360;2023-08-17T07:39:19;21.10;99.90
3756;DHT22;1893;52.526;13.360;2023-08-17T07:41:44;21.10;99.90
3756;DHT22;1893;52.526;13.360;2023-08-17T07:44:10;21.10;99.90
3756;DHT22;1893;52.526;13.360;2023-08-17T07:46:36;21.10;99.90
3756;DHT22;1893;52.526;13.360;2023-08-17T07:49:03;21.00;99.90
3756;DHT22;1893;52.526;13.360;2023-08-17T07:51:28;21.00;99.90
3756;DHT22;1893;52.526;13.360;2023-08-17T07:53:56;21.00;99.90
3756;DHT22;1893;52.526;13.360;2023-08-17T07:56:21;21.10;99.90
3756;DHT22;1893;52.526;13.360;2023-08-17T07:58:47;21.10;99.90
3756;DHT22;1893;52.526;13.360;2023-08-17T08:01:12;21.30;99.90
3756;DHT22;1893;52.526;13.360;2023-08-17T08:03:38;21.40;99.90
3756;DHT22;1893;52.526;13.360;2023-08-17T08:06:04;21.50;99.90
3756;DHT22;1893;52.526;13.360;2023-08-17T08:08:29;21.90;99.90
3756;DHT22;1893;52.526;13.360;2023-08-17T08:10:55;22.10;99.90
3756;DHT22;1893;52.526;13.360;2023-08-17T08:13:20;22.10;99.90
3756;DHT22;1893;52.526;13.360;2023-08-17T08:15:46;22.20;99.90
3756;DHT22;1893;52.526;13.360;2023-08-17T08:18:12;22.30;99.90
3756;DHT22;1893;52.526;13.360;2023-08-17T08:20:38;22.30;99.90
3756;DHT22;1893;52.526;13.360;2023-08-17T08:23:03;22.40;99.90
3756;DHT22;1893;52.526;13.360;2023-08-17T08:25:29;22.70;99.90
3756;DHT22;1893;52.526;13.360;2023-08-17T08:27:55;22.70;99.90
3756;DHT22;1893;52.526;13.360;2023-08-17T08:30:20;22.80;99.90
3756;DHT22;1893;52.526;13.360;2023-08-17T08:32:46;23.00;99.90
3756;DHT22;1893;52.526;13.360;2023-08-17T08:35:11;23.40;99.90
3756;DHT22;1893;52.526;13.360;2023-08-17T08:37:37;23.30;99.90
3756;DHT22;1893;52.526;13.360;2023-08-17T08:40:03;23.30;99.90
3756;DHT22;1893;52.526;13.360;2023-08-17T08:42:29;23.10;99.90
3756;DHT22;1893;52.526;13.360;2023-08-17T08:44:55;22.90;99.90
3756;DHT22;1893;52.526;13.360;2023-08-17T08:47:21;22.70;99.90
3756;DHT22;1893;52.526;13.360;2023-08-17T08:50:00;22.60;99.90
3756;DHT22;1893;52.526;13.360;2023-08-17T08:52:36;22.30;99.90
3756;DHT22;1893;52.526;13.360;2023-08-17T08:55:12;22.30;99.90
3756;DHT22;1893;52.526;13.360;2023-08-17T08:57:41;22.20;99.90
3756;DHT22;1893;52.526;13.360;2023-08-17T09:00:08;22.10;99.90
3756;DHT22;1893;52.526;13.360;2023-08-17T09:02:35;21.90;99.90
3756;DHT22;1893;52.526;13.360;2023-08-17T09:05:02;21.90;99.90
3756;DHT22;1893;52.526;13.360;2023-08-17T09:07:31;22.00;99.90
3756;DHT22;1893;52.526;13.360;2023-08-17T09:09:58;22.00;99.90
3756;DHT22;1893;52.526;13.360;2023-08-17T09:12:24;22.00;99.90
3756;DHT22;1893;52.526;13.360;2023-08-17T09:14:50;22.10;99.90
3756;DHT22;1893;52.526;13.360;2023-08-17T09:17:25;22.20;99.90
3756;DHT22;1893;52.526;13.360;2023-08-17T09:19:51;22.30;99.90
3756;DHT22;1893;52.526;13.360;2023-08-17T09:22:36;22.30;99.90
3756;DHT22;1893;52.526;13.360;2023-08-17T09:25:02;22.40;99.90
3756;DHT22;1893;52.526;13.360;2023-08-17T09:27:28;22.60;99.90
3756;DHT22;1893;52.526;13.360;2023-08-17T09:30:04;22.70;99.90
3756;DHT22;1893;52.526;13.360;2023-08-17T09:32:31;22.90;99.90
3756;DHT22;1893;52.526;13.360;2023-08-17T09:34:58;22.90;99.90
3756;DHT22;1893;52.526;13.360;2023-08-17T09:37:27;23.10;99.90
3756;DHT22;1893;52.526;13.360;2023-08-17T09:39:53;23.30;99.90
3756;DHT22;1893;52.526;13.360;2023-08-17T09:42:20;23.20;99.90
3756;DHT22;1893;52.526;13.360;2023-08-17T09:44:51;23.20;99.90
3756;DHT22;1893;52.526;13.360;2023-08-17T09:47:17;23.20;99.90
3756;DHT22;1893;52.526;13.360;2023-08-17T09:49:51;23.20;99.90
3756;DHT22;1893;52.526;13.360;2023-08-17T09:52:18;23.40;99.90
3756;DHT22;1893;52.526;13.360;2023-08-17T09:54:45;23.50;99.90
3756;DHT22;1893;52.526;13.360;2023-08-17T09:57:12;23.40;99.90
3756;DHT22;1893;52.526;13.360;2023-08-17T09:59:38;23.30;99.90
3756;DHT22;1893;52.526;13.360;2023-08-17T10:02:17;23.50;99.90
3756;DHT22;1893;52.526;13.360;2023-08-17T10:04:47;23.70;99.90
3756;DHT22;1893;52.526;13.360;2023-08-17T10:07:14;24.00;99.90
3756;DHT22;1893;52.526;13.360;2023-08-17T10:09:43;23.80;99.90
3756;DHT22;1893;52.526;13.360;2023-08-17T10:12:15;23.60;99.90
3756;DHT22;1893;52.526;13.360;2023-08-17T10:14:50;23.40;99.90
3756;DHT22;1893;52.526;13.360;2023-08-17T10:17:26;23.30;99.90
3756;DHT22;1893;52.526;13.360;2023-08-17T10:19:55;23.20;99.90
3756;DHT22;1893;52.526;13.360;2023-08-17T10:22:34;23.10;99.90
3756;DHT22;1893;52.526;13.360;2023-08-17T10:25:02;23.00;99.90
3756;DHT22;1893;52.526;13.360;2023-08-17T10:27:29;23.00;99.90
3756;DHT22;1893;52.526;13.360;2023-08-17T10:29:55;23.20;99.90
3756;DHT22;1893;52.526;13.360;2023-08-17T10:32:22;23.30;99.90
3756;DHT22;1893;52.526;13.360;2023-08-17T10:34:50;23.60;99.90
3756;DHT22;1893;52.526;13.360;2023-08-17T10:37:17;23.80;99.90
3756;DHT22;1893;52.526;13.360;2023-08-17T10:39:48;24.80;99.90
3756;DHT22;1893;52.526;13.360;2023-08-17T10:42:14;26.30;99.90
3756;DHT22;1893;52.526;13.360;2023-08-17T10:44:49;27.30;99.90
3756;DHT22;1893;52.526;13.360;2023-08-17T10:49:44;28.20;99.90
3756;DHT22;1893;52.526;13.360;2023-08-17T10:52:11;27.90;99.90
3756;DHT22;1893;52.526;13.360;2023-08-17T10:54:38;28.10;99.90
3756;DHT22;1893;52.526;13.360;2023-08-17T11:02:55;30.20;99.90
3756;DHT22;1893;52.526;13.360;2023-08-17T11:05:44;29.90;99.90
3756;DHT22;1893;52.526;13.360;2023-08-17T11:08:19;29.70;99.90
3756;DHT22;1893;52.526;13.360;2023-08-17T11:11:12;30.00;99.90
3756;DHT22;1893;52.526;13.360;2023-08-17T11:13:39;30.60;99.90
3756;DHT22;1893;52.526;13.360;2023-08-17T11:16:06;30.70;99.90
3756;DHT22;1893;52.526;13.360;2023-08-17T11:18:33;31.10;99.90
3756;DHT22;1893;52.526;13.360;2023-08-17T11:20:59;30.30;99.90
3756;DHT22;1893;52.526;13.360;2023-08-17T11:23:29;29.20;99.90
3756;DHT22;1893;52.526;13.360;2023-08-17T11:25:55;28.40;99.90
3756;DHT22;1893;52.526;13.360;2023-08-17T11:28:22;28.10;99.90
3756;DHT22;1893;52.526;13.360;2023-08-17T11:31:02;28.30;99.90
3756;DHT22;1893;52.526;13.360;2023-08-17T11:33:29;28.10;99.90
3756;DHT22;1893;52.526;13.360;2023-08-17T11:35:59;27.20;99.90
3756;DHT22;1893;52.526;13.360;2023-08-17T11:38:26;26.60;99.90
3756;DHT22;1893;52.526;13.360;2023-08-17T11:40:52;26.60;99.90
3756;DHT22;1893;52.526;13.360;2023-08-17T11:43:18;26.30;99.90
3756;DHT22;1893;52.526;13.360;2023-08-17T11:45:46;26.10;99.90
3756;DHT22;1893;52.526;13.360;2023-08-17T11:48:11;25.90;99.90
3756;DHT22;1893;52.526;13.360;2023-08-17T11:50:38;25.60;99.90
3756;DHT22;1893;52.526;13.360;2023-08-17T11:53:07;25.50;99.90
3756;DHT22;1893;52.526;13.360;2023-08-17T11:55:32;25.80;99.90
3756;DHT22;1893;52.526;13.360;2023-08-17T11:57:58;25.90;99.90
3756;DHT22;1893;52.526;13.360;2023-08-17T12:00:23;26.10;99.90
3756;DHT22;1893;52.526;13.360;2023-08-17T12:02:52;26.60;99.90
3756;DHT22;1893;52.526;13.360;2023-08-17T12:05:21;26.60;99.90
3756;DHT22;1893;52.526;13.360;2023-08-17T12:07:49;26.60;99.90
3756;DHT22;1893;52.526;13.360;2023-08-17T12:10:15;26.40;99.90
3756;DHT22;1893;52.526;13.360;2023-08-17T12:12:41;26.40;99.90
3756;DHT22;1893;52.526;13.360;2023-08-17T12:15:09;26.40;99.90
3756;DHT22;1893;52.526;13.360;2023-08-17T12:17:35;26.40;99.90
3756;DHT22;1893;52.526;13.360;2023-08-17T12:20:02;26.80;99.90
3756;DHT22;1893;52.526;13.360;2023-08-17T12:22:28;26.90;99.90
3756;DHT22;1893;52.526;13.360;2023-08-17T12:24:53;26.70;99.90
3756;DHT22;1893;52.526;13.360;2023-08-17T12:27:22;26.60;99.90
3756;DHT22;1893;52.526;13.360;2023-08-17T12:29:51;26.60;99.90
3756;DHT22;1893;52.526;13.360;2023-08-17T12:32:17;26.50;99.90
3756;DHT22;1893;52.526;13.360;2023-08-17T12:34:43;26.20;99.90
3756;DHT22;1893;52.526;13.360;2023-08-17T12:37:10;26.30;99.90
3756;DHT22;1893;52.526;13.360;2023-08-17T12:39:36;26.30;99.90
3756;DHT22;1893;52.526;13.360;2023-08-17T12:42:03;26.20;99.90
3756;DHT22;1893;52.526;13.360;2023-08-17T12:44:28;26.50;99.90
3756;DHT22;1893;52.526;13.360;2023-08-17T12:46:54;26.80;99.90
3756;DHT22;1893;52.526;13.360;2023-08-17T12:49:19;26.80;99.90
3756;DHT22;1893;52.526;13.360;2023-08-17T12:51:45;26.60;99.90
3756;DHT22;1893;52.526;13.360;2023-08-17T12:54:11;26.50;99.90
3756;DHT22;1893;52.526;13.360;2023-08-17T12:56:36;26.50;99.90
3756;DHT22;1893;52.526;13.360;2023-08-17T12:59:02;26.50;99.90
3756;DHT22;1893;52.526;13.360;2023-08-17T13:01:28;26.60;99.90
3756;DHT22;1893;52.526;13.360;2023-08-17T13:03:53;26.60;99.90
3756;DHT22;1893;52.526;13.360;2023-08-17T13:06:19;26.50;99.90
3756;DHT22;1893;52.526;13.360;2023-08-17T13:08:45;26.30;99.90
3756;DHT22;1893;52.526;13.360;2023-08-17T13:11:11;26.20;99.90
3756;DHT22;1893;52.526;13.360;2023-08-17T13:13:37;26.00;99.90
3756;DHT22;1893;52.526;13.360;2023-08-17T13:16:02;25.90;99.90
3756;DHT22;1893;52.526;13.360;2023-08-17T13:18:28;26.10;99.90
3756;DHT22;1893;52.526;13.360;2023-08-17T13:20:54;26.10;99.90
3756;DHT22;1893;52.526;13.360;2023-08-17T13:23:20;26.10;99.90
3756;DHT22;1893;52.526;13.360;2023-08-17T13:25:46;26.00;99.90
3756;DHT22;1893;52.526;13.360;2023-08-17T13:28:11;26.10;99.90
3756;DHT22;1893;52.526;13.360;2023-08-17T13:30:38;26.20;99.90
3756;DHT22;1893;52.526;13.360;2023-08-17T13:33:05;26.10;99.90
3756;DHT22;1893;52.526;13.360;2023-08-17T13:35:35;25.90;99.90
3756;DHT22;1893;52.526;13.360;2023-08-17T13:38:00;25.90;99.90
3756;DHT22;1893;52.526;13.360;2023-08-17T13:40:30;26.10;99.90
3756;DHT22;1893;52.526;13.360;2023-08-17T13:42:55;26.30;99.90
3756;DHT22;1893;52.526;13.360;2023-08-17T13:45:21;26.40;99.90
3756;DHT22;1893;52.526;13.360;2023-08-17T13:47:48;26.50;99.90
3756;DHT22;1893;52.526;13.360;2023-08-17T13:50:13;26.80;99.90
3756;DHT22;1893;52.526;13.360;2023-08-17T13:52:39;26.90;99.90
3756;DHT22;1893;52.526;13.360;2023-08-17T13:55:05;26.70;99.90
3756;DHT22;1893;52.526;13.360;2023-08-17T13:57:31;26.50;99.90
3756;DHT22;1893;52.526;13.360;2023-08-17T13:59:57;26.40;99.90
3756;DHT22;1893;52.526;13.360;2023-08-17T14:02:22;26.40;99.90
3756;DHT22;1893;52.526;13.360;2023-08-17T14:04:48;26.30;99.90
3756;DHT22;1893;52.526;13.360;2023-08-17T14:07:14;26.50;99.90
3756;DHT22;1893;52.526;13.360;2023-08-17T14:09:39;26.60;99.90
3756;DHT22;1893;52.526;13.360;2023-08-17T14:12:05;26.60;99.90
3756;DHT22;1893;52.526;13.360;2023-08-17T14:14:31;26.40;99.90
3756;DHT22;1893;52.526;13.360;2023-08-17T14:16:58;26.60;99.90
3756;DHT22;1893;52.526;13.360;2023-08-17T14:19:24;26.60;99.90
3756;DHT22;1893;52.526;13.360;2023-08-17T14:21:50;26.40;99.90
3756;DHT22;1893;52.526;13.360;2023-08-17T14:24:16;26.40;99.90
3756;DHT22;1893;52.526;13.360;2023-08-17T14:26:44;26.40;99.90
3756;DHT22;1893;52.526;13.360;2023-08-17T14:29:10;26.30;99.90
3756;DHT22;1893;52.526;13.360;2023-08-17T14:31:35;26.30;99.90
3756;DHT22;1893;52.526;13.360;2023-08-17T14:34:01;26.20;99.90
3756;DHT22;1893;52.526;13.360;2023-08-17T14:36:27;26.20;99.90
3756;DHT22;1893;52.526;13.360;2023-08-17T14:38:52;26.30;99.90
3756;DHT22;1893;52.526;13.360;2023-08-17T14:41:18;26.50;99.90
3756;DHT22;1893;52.526;13.360;2023-08-17T14:43:43;26.80;99.90
3756;DHT22;1893;52.526;13.360;2023-08-17T14:46:09;26.90;99.90
3756;DHT22;1893;52.526;13.360;2023-08-17T14:48:35;26.60;99.90
3756;DHT22;1893;52.526;13.360;2023-08-17T14:51:00;26.60;99.90
3756;DHT22;1893;52.526;13.360;2023-08-17T14:53:26;26.70;99.90
3756;DHT22;1893;52.526;13.360;2023-08-17T14:55:52;26.90;99.90
3756;DHT22;1893;52.526;13.360;2023-08-17T14:58:17;26.90;99.90
3756;DHT22;1893;52.526;13.360;2023-08-17T15:00:43;27.00;99.90
3756;DHT22;1893;52.526;13.360;2023-08-17T15:03:09;26.90;99.90
3756;DHT22;1893;52.526;13.360;2023-08-17T15:05:34;26.90;99.90
3756;DHT22;1893;52.526;13.360;2023-08-17T15:08:02;26.90;99.90
3756;DHT22;1893;52.526;13.360;2023-08-17T15:10:29;27.00;99.90
3756;DHT22;1893;52.526;13.360;2023-08-17T15:12:55;27.10;99.90
3756;DHT22;1893;52.526;13.360;2023-08-17T15:15:20;27.00;99.90
3756;DHT22;1893;52.526;13.360;2023-08-17T15:17:46;26.90;99.90
3756;DHT22;1893;52.526;13.360;2023-08-17T15:20:11;26.70;99.90
3756;DHT22;1893;52.526;13.360;2023-08-17T15:22:37;26.50;99.90
3756;DHT22;1893;52.526;13.360;2023-08-17T15:25:03;26.50;99.90
3756;DHT22;1893;52.526;13.360;2023-08-17T15:27:29;26.70;99.90
3756;DHT22;1893;52.526;13.360;2023-08-17T15:29:54;26.70;99.90
3756;DHT22;1893;52.526;13.360;2023-08-17T15:32:20;26.60;99.90
3756;DHT22;1893;52.526;13.360;2023-08-17T15:34:46;26.50;99.90
3756;DHT22;1893;52.526;13.360;2023-08-17T15:37:11;26.50;99.90
3756;DHT22;1893;52.526;13.360;2023-08-17T15:39:37;26.40;99.90
3756;DHT22;1893;52.526;13.360;2023-08-17T15:42:03;26.20;99.90
3756;DHT22;1893;52.526;13.360;2023-08-17T15:44:28;26.10;99.90
3756;DHT22;1893;52.526;13.360;2023-08-17T15:46:55;26.00;99.90
3756;DHT22;1893;52.526;13.360;2023-08-17T15:49:23;25.90;99.90